sensor_id;sensor_type;location;lat;lon;timestamp;P1;durP1;ratioP1;P2;durP2;ratioP2
49340;SDS011;35209;51.050;13.678;2023-08-21T00:01:20;9.10;;;8.45;;
49340;SDS011;35209;51.050;13.678;2023-08-21T00:06:22;8.38;;;7.88;;
49340;SDS011;35209;51.050;13.678;2023-08-21T00:11:24;7.90;;;7.40;;
49340;SDS011;35209;51.050;13.678;2023-08-21T00:16:26;9.38;;;8.68;;
49340;SDS011;35209;51.050;13.678;2023-08-21T00:26:33;7.57;;;7.07;;
49340;SDS011;35209;51.050;13.678;2023-08-21T00:31:35;8.60;;;7.82;;
49340;SDS011;35209;51.050;13.678;2023-08-21T00:36:37;9.90;;;7.85;;
49340;SDS011;35209;51.050;13.678;2023-08-21T00:41:39;9.52;;;8.93;;
49340;SDS011;35209;51.050;13.678;2023-08-21T00:46:41;8.48;;;7.88;;
49340;SDS011;35209;51.050;13.678;2023-08-21T00:51:44;8.40;;;7.90;;
49340;SDS011;35209;51.050;13.678;2023-08-21T00:56:46;7.72;;;7.05;;
49340;SDS011;35209;51.050;13.678;2023-08-21T01:01:51;6.88;;;6.38;;
49340;SDS011;35209;51.050;13.678;2023-08-21T01:06:53;8.00;;;7.50;;
49340;SDS011;35209;51.050;13.678;2023-08-21T01:17:17;7.90;;;7.13;;
49340;SDS011;35209;51.050;13.678;2023-08-21T01:22:28;8.43;;;7.85;;
49340;SDS011;35209;51.050;13.678;2023-08-21T01:27:39;6.13;;;5.72;;
49340;SDS011;35209;51.050;13.678;2023-08-21T01:38:07;7.50;;;6.97;;
49340;SDS011;35209;51.050;13.678;2023-08-21T01:43:08;6.10;;;5.70;;
49340;SDS011;35209;51.050;13.678;2023-08-21T01:48:10;6.43;;;5.93;;
49340;SDS011;35209;51.050;13.678;2023-08-21T01:53:12;6.65;;;6.15;;
49340;SDS011;35209;51.050;13.678;2023-08-21T01:58:14;6.30;;;5.72;;
49340;SDS011;35209;51.050;13.678;2023-08-21T02:03:16;6.10;;;5.60;;
49340;SDS011;35209;51.050;13.678;2023-08-21T02:08:20;7.18;;;6.68;;
49340;SDS011;35209;51.050;13.678;2023-08-21T02:13:23;6.63;;;6.10;;
49340;SDS011;35209;51.050;13.678;2023-08-21T02:18:25;6.57;;;6.18;;
49340;SDS011;35209;51.050;13.678;2023-08-21T02:23:27;6.00;;;5.50;;
49340;SDS011;35209;51.050;13.678;2023-08-21T02:28:30;6.68;;;6.18;;
49340;SDS011;35209;51.050;13.678;2023-08-21T02:33:31;6.53;;;6.05;;
49340;SDS011;35209;51.050;13.678;2023-08-21T02:38:33;6.30;;;5.80;;
49340;SDS011;35209;51.050;13.678;2023-08-21T02:43:37;6.32;;;5.70;;
49340;SDS011;35209;51.050;13.678;2023-08-21T02:48:40;7.57;;;6.97;;
49340;SDS011;35209;51.050;13.678;2023-08-21T02:53:42;6.50;;;5.97;;
49340;SDS011;35209;51.050;13.678;2023-08-21T02:58:43;7.70;;;7.00;;
49340;SDS011;35209;51.050;13.678;2023-08-21T03:03:45;8.15;;;7.65;;
49340;SDS011;35209;51.050;13.678;2023-08-21T03:08:48;7.15;;;6.55;;
49340;SDS011;35209;51.050;13.678;2023-08-21T03:13:52;6.47;;;6.03;;
49340;SDS011;35209;51.050;13.678;2023-08-21T03:18:54;6.65;;;6.15;;
49340;SDS011;35209;51.050;13.678;2023-08-21T03:24:02;7.05;;;6.32;;
49340;SDS011;35209;51.050;13.678;2023-08-21T03:29:06;6.22;;;5.82;;
49340;SDS011;35209;51.050;13.678;2023-08-21T03:34:08;6.47;;;5.93;;
49340;SDS011;35209;51.050;13.678;2023-08-21T03:39:10;6.55;;;6.13;;
49340;SDS011;35209;51.050;13.678;2023-08-21T03:44:17;6.13;;;5.72;;
49340;SDS011;35209;51.050;13.678;2023-08-21T03:49:19;5.55;;;5.15;;
49340;SDS011;35209;51.050;13.678;2023-08-21T03:54:22;6.32;;;5.80;;
49340;SDS011;35209;51.050;13.678;2023-08-21T03:59:24;5.18;;;4.85;;
49340;SDS011;35209;51.050;13.678;2023-08-21T04:04:28;6.30;;;5.80;;
49340;SDS011;35209;51.050;13.678;2023-08-21T04:09:30;6.13;;;5.63;;
49340;SDS011;35209;51.050;13.678;2023-08-21T04:14:32;6.45;;;5.75;;
49340;SDS011;35209;51.050;13.678;2023-08-21T04:19:33;6.82;;;6.22;;
49340;SDS011;35209;51.050;13.678;2023-08-21T04:24:36;6.97;;;6.47;;
49340;SDS011;35209;51.050;13.678;2023-08-21T04:29:38;9.45;;;6.15;;
49340;SDS011;35209;51.050;13.678;2023-08-21T04:34:41;7.30;;;6.50;;
49340;SDS011;35209;51.050;13.678;2023-08-21T04:39:43;7.93;;;7.35;;
49340;SDS011;35209;51.050;13.678;2023-08-21T04:44:45;8.13;;;6.60;;
49340;SDS011;35209;51.050;13.678;2023-08-21T04:49:49;8.02;;;7.35;;
49340;SDS011;35209;51.050;13.678;2023-08-21T04:54:52;7.68;;;7.18;;
49340;SDS011;35209;51.050;13.678;2023-08-21T04:59:55;8.45;;;7.65;;
49340;SDS011;35209;51.050;13.678;2023-08-21T05:04:57;7.53;;;7.03;;
49340;SDS011;35209;51.050;13.678;2023-08-21T05:09:59;7.15;;;6.75;;
49340;SDS011;35209;51.050;13.678;2023-08-21T05:15:04;8.60;;;7.97;;
49340;SDS011;35209;51.050;13.678;2023-08-21T05:20:08;8.45;;;7.78;;
49340;SDS011;35209;51.050;13.678;2023-08-21T05:25:12;6.78;;;6.28;;
49340;SDS011;35209;51.050;13.678;2023-08-21T05:30:15;7.05;;;6.50;;
49340;SDS011;35209;51.050;13.678;2023-08-21T05:35:17;7.35;;;6.75;;
49340;SDS011;35209;51.050;13.678;2023-08-21T05:40:19;7.90;;;7.40;;
49340;SDS011;35209;51.050;13.678;2023-08-21T05:45:20;7.82;;;7.32;;
49340;SDS011;35209;51.050;13.678;2023-08-21T05:50:22;9.73;;;8.98;;
49340;SDS011;35209;51.050;13.678;2023-08-21T05:55:28;8.05;;;7.38;;
49340;SDS011;35209;51.050;13.678;2023-08-21T06:00:30;9.18;;;8.43;;
49340;SDS011;35209;51.050;13.678;2023-08-21T06:05:36;8.55;;;7.95;;
49340;SDS011;35209;51.050;13.678;2023-08-21T06:10:38;8.50;;;7.80;;
49340;SDS011;35209;51.050;13.678;2023-08-21T06:15:43;8.00;;;7.30;;
49340;SDS011;35209;51.050;13.678;2023-08-21T06:20:47;7.63;;;6.88;;
49340;SDS011;35209;51.050;13.678;2023-08-21T06:25:50;9.13;;;8.25;;
49340;SDS011;35209;51.050;13.678;2023-08-21T06:30:57;8.98;;;8.23;;
49340;SDS011;35209;51.050;13.678;2023-08-21T06:36:00;7.65;;;7.03;;
49340;SDS011;35209;51.050;13.678;2023-08-21T06:41:02;7.63;;;7.03;;
49340;SDS011;35209;51.050;13.678;2023-08-21T06:46:10;7.32;;;6.72;;
49340;SDS011;35209;51.050;13.678;2023-08-21T06:51:12;8.38;;;7.78;;
49340;SDS011;35209;51.050;13.678;2023-08-21T06:56:17;6.80;;;6.40;;
49340;SDS011;35209;51.050;13.678;2023-08-21T07:01:19;6.38;;;5.75;;
49340;SDS011;35209;51.050;13.678;2023-08-21T07:06:21;8.85;;;8.13;;
49340;SDS011;35209;51.050;13.678;2023-08-21T07:11:23;6.22;;;5.75;;
49340;SDS011;35209;51.050;13.678;2023-08-21T07:16:24;6.15;;;5.65;;
49340;SDS011;35209;51.050;13.678;2023-08-21T07:21:27;6.80;;;6.20;;
49340;SDS011;35209;51.050;13.678;2023-08-21T07:26:34;6.45;;;5.95;;
49340;SDS011;35209;51.050;13.678;2023-08-21T07:31:36;5.97;;;5.35;;
49340;SDS011;35209;51.050;13.678;2023-08-21T07:36:38;7.32;;;6.78;;
49340;SDS011;35209;51.050;13.678;2023-08-21T07:41:39;7.53;;;7.03;;
49340;SDS011;35209;51.050;13.678;2023-08-21T07:46:41;8.27;;;7.55;;
49340;SDS011;35209;51.050;13.678;2023-08-21T07:51:43;5.45;;;5.05;;
49340;SDS011;35209;51.050;13.678;2023-08-21T07:56:44;5.78;;;5.38;;
49340;SDS011;35209;51.050;13.678;2023-08-21T08:01:46;6.18;;;5.60;;
49340;SDS011;35209;51.050;13.678;2023-08-21T08:06:48;5.78;;;5.30;;
49340;SDS011;35209;51.050;13.678;2023-08-21T08:11:49;5.90;;;5.32;;
49340;SDS011;35209;51.050;13.678;2023-08-21T08:16:51;5.70;;;5.40;;
49340;SDS011;35209;51.050;13.678;2023-08-21T08:21:53;4.63;;;4.32;;
49340;SDS011;35209;51.050;13.678;2023-08-21T08:26:54;5.40;;;4.85;;
49340;SDS011;35209;51.050;13.678;2023-08-21T08:31:56;5.03;;;4.60;;
49340;SDS011;35209;51.050;13.678;2023-08-21T08:36:58;4.82;;;4.53;;
49340;SDS011;35209;51.050;13.678;2023-08-21T08:42:02;4.90;;;4.60;;
49340;SDS011;35209;51.050;13.678;2023-08-21T08:47:05;4.63;;;4.30;;
49340;SDS011;35209;51.050;13.678;2023-08-21T08:52:07;5.00;;;4.70;;
49340;SDS011;35209;51.050;13.678;2023-08-21T08:57:09;5.25;;;4.85;;
49340;SDS011;35209;51.050;13.678;2023-08-21T09:02:10;5.05;;;4.57;;
49340;SDS011;35209;51.050;13.678;2023-08-21T09:07:13;5.53;;;3.88;;
49340;SDS011;35209;51.050;13.678;2023-08-21T09:12:18;4.78;;;4.32;;
49340;SDS011;35209;51.050;13.678;2023-08-21T09:17:20;4.68;;;4.32;;
49340;SDS011;35209;51.050;13.678;2023-08-21T09:22:22;4.32;;;3.97;;
49340;SDS011;35209;51.050;13.678;2023-08-21T09:27:24;13.38;;;4.32;;
49340;SDS011;35209;51.050;13.678;2023-08-21T09:32:26;3.83;;;3.53;;
49340;SDS011;35209;51.050;13.678;2023-08-21T09:37:28;4.20;;;3.85;;
49340;SDS011;35209;51.050;13.678;2023-08-21T09:42:33;3.35;;;3.10;;
49340;SDS011;35209;51.050;13.678;2023-08-21T09:47:35;3.30;;;3.00;;
49340;SDS011;35209;51.050;13.678;2023-08-21T09:52:38;2.67;;;2.47;;
49340;SDS011;35209;51.050;13.678;2023-08-21T09:57:40;3.45;;;2.60;;
49340;SDS011;35209;51.050;13.678;2023-08-21T10:02:42;3.03;;;2.72;;
49340;SDS011;35209;51.050;13.678;2023-08-21T10:07:49;4.05;;;2.53;;
49340;SDS011;35209;51.050;13.678;2023-08-21T10:12:51;5.30;;;2.92;;
49340;SDS011;35209;51.050;13.678;2023-08-21T10:17:54;3.20;;;2.90;;
49340;SDS011;35209;51.050;13.678;2023-08-21T10:23:00;2.90;;;2.70;;
49340;SDS011;35209;51.050;13.678;2023-08-21T10:28:03;5.25;;;3.03;;
49340;SDS011;35209;51.050;13.678;2023-08-21T10:33:06;3.08;;;2.80;;
49340;SDS011;35209;51.050;13.678;2023-08-21T10:48:49;2.90;;;2.50;;
49340;SDS011;35209;51.050;13.678;2023-08-21T10:53:50;3.17;;;2.38;;
49340;SDS011;35209;51.050;13.678;2023-08-21T10:58:52;3.75;;;2.85;;
49340;SDS011;35209;51.050;13.678;2023-08-21T11:03:56;2.83;;;2.60;;
49340;SDS011;35209;51.050;13.678;2023-08-21T11:08:58;3.22;;;2.78;;
49340;SDS011;35209;51.050;13.678;2023-08-21T11:13:59;3.17;;;2.83;;
49340;SDS011;35209;51.050;13.678;2023-08-21T11:19:04;2.92;;;2.72;;
49340;SDS011;35209;51.050;13.678;2023-08-21T11:24:07;3.05;;;2.83;;
49340;SDS011;35209;51.050;13.678;2023-08-21T11:29:08;2.90;;;2.70;;
49340;SDS011;35209;51.050;13.678;2023-08-21T11:34:10;4.05;;;2.97;;
49340;SDS011;35209;51.050;13.678;2023-08-21T11:39:24;3.30;;;2.50;;
49340;SDS011;35209;51.050;13.678;2023-08-21T11:44:31;7.53;;;2.50;;
49340;SDS011;35209;51.050;13.678;2023-08-21T11:49:32;3.15;;;2.85;;
49340;SDS011;35209;51.050;13.678;2023-08-21T11:54:37;3.08;;;2.83;;
49340;SDS011;35209;51.050;13.678;2023-08-21T11:59:42;4.38;;;3.30;;
49340;SDS011;35209;51.050;13.678;2023-08-21T12:04:43;3.20;;;2.92;;
49340;SDS011;35209;51.050;13.678;2023-08-21T12:09:46;3.33;;;3.03;;
49340;SDS011;35209;51.050;13.678;2023-08-21T12:14:49;7.10;;;3.00;;
49340;SDS011;35209;51.050;13.678;2023-08-21T12:19:51;4.22;;;2.67;;
49340;SDS011;35209;51.050;13.678;2023-08-21T12:24:53;5.00;;;2.30;;
49340;SDS011;35209;51.050;13.678;2023-08-21T12:29:54;4.30;;;2.85;;
49340;SDS011;35209;51.050;13.678;2023-08-21T12:34:56;3.55;;;2.85;;
49340;SDS011;35209;51.050;13.678;2023-08-21T12:39:58;2.80;;;2.60;;
49340;SDS011;35209;51.050;13.678;2023-08-21T12:44:59;3.20;;;2.83;;
49340;SDS011;35209;51.050;13.678;2023-08-21T12:50:01;2.67;;;2.45;;
49340;SDS011;35209;51.050;13.678;2023-08-21T12:55:04;3.55;;;2.85;;
49340;SDS011;35209;51.050;13.678;2023-08-21T13:00:07;3.03;;;2.55;;
49340;SDS011;35209;51.050;13.678;2023-08-21T13:05:09;3.67;;;2.78;;
49340;SDS011;35209;51.050;13.678;2023-08-21T13:10:11;2.42;;;2.20;;
49340;SDS011;35209;51.050;13.678;2023-08-21T13:15:12;3.08;;;2.88;;
49340;SDS011;35209;51.050;13.678;2023-08-21T13:20:14;3.80;;;3.00;;
49340;SDS011;35209;51.050;13.678;2023-08-21T13:25:20;2.88;;;2.47;;
49340;SDS011;35209;51.050;13.678;2023-08-21T13:30:24;3.30;;;3.03;;
49340;SDS011;35209;51.050;13.678;2023-08-21T13:35:26;2.40;;;2.20;;
49340;SDS011;35209;51.050;13.678;2023-08-21T13:40:28;2.70;;;2.22;;
49340;SDS011;35209;51.050;13.678;2023-08-21T13:45:30;3.85;;;2.92;;
49340;SDS011;35209;51.050;13.678;2023-08-21T13:50:32;2.75;;;2.55;;
49340;SDS011;35209;51.050;13.678;2023-08-21T13:55:35;2.53;;;2.33;;
49340;SDS011;35209;51.050;13.678;2023-08-21T14:00:39;3.03;;;2.72;;
49340;SDS011;35209;51.050;13.678;2023-08-21T14:05:41;2.63;;;2.40;;
49340;SDS011;35209;51.050;13.678;2023-08-21T14:10:44;3.00;;;2.70;;
49340;SDS011;35209;51.050;13.678;2023-08-21T14:15:45;2.80;;;2.38;;
49340;SDS011;35209;51.050;13.678;2023-08-21T14:20:47;3.03;;;2.72;;
49340;SDS011;35209;51.050;13.678;2023-08-21T14:25:49;2.63;;;2.42;;
49340;SDS011;35209;51.050;13.678;2023-08-21T14:30:53;3.75;;;2.78;;
49340;SDS011;35209;51.050;13.678;2023-08-21T14:35:55;3.17;;;2.60;;
49340;SDS011;35209;51.050;13.678;2023-08-21T14:40:56;3.25;;;2.70;;
49340;SDS011;35209;51.050;13.678;2023-08-21T14:45:59;4.43;;;3.17;;
49340;SDS011;35209;51.050;13.678;2023-08-21T14:51:01;3.47;;;2.55;;
49340;SDS011;35209;51.050;13.678;2023-08-21T14:56:03;2.53;;;2.28;;
49340;SDS011;35209;51.050;13.678;2023-08-21T15:01:05;2.95;;;2.75;;
49340;SDS011;35209;51.050;13.678;2023-08-21T15:06:07;2.75;;;2.53;;
49340;SDS011;35209;51.050;13.678;2023-08-21T15:11:09;4.10;;;2.40;;
49340;SDS011;35209;51.050;13.678;2023-08-21T15:16:11;2.85;;;2.63;;
49340;SDS011;35209;51.050;13.678;2023-08-21T15:21:13;3.05;;;2.85;;
49340;SDS011;35209;51.050;13.678;2023-08-21T15:26:14;3.13;;;2.80;;
49340;SDS011;35209;51.050;13.678;2023-08-21T15:31:16;5.50;;;2.80;;
49340;SDS011;35209;51.050;13.678;2023-08-21T15:36:18;4.13;;;2.50;;
49340;SDS011;35209;51.050;13.678;2023-08-21T15:41:23;2.63;;;2.42;;
49340;SDS011;35209;51.050;13.678;2023-08-21T15:46:25;2.97;;;2.75;;
49340;SDS011;35209;51.050;13.678;2023-08-21T15:51:27;2.83;;;2.53;;
49340;SDS011;35209;51.050;13.678;2023-08-21T15:56:29;3.15;;;2.90;;
49340;SDS011;35209;51.050;13.678;2023-08-21T16:01:30;2.40;;;2.20;;
49340;SDS011;35209;51.050;13.678;2023-08-21T16:06:32;2.80;;;2.60;;
49340;SDS011;35209;51.050;13.678;2023-08-21T16:11:34;3.13;;;2.83;;
49340;SDS011;35209;51.050;13.678;2023-08-21T16:16:36;2.38;;;2.13;;
49340;SDS011;35209;51.050;13.678;2023-08-21T16:21:38;3.17;;;2.88;;
49340;SDS011;35209;51.050;13.678;2023-08-21T16:26:40;4.78;;;2.63;;
49340;SDS011;35209;51.050;13.678;2023-08-21T16:31:42;3.25;;;2.95;;
49340;SDS011;35209;51.050;13.678;2023-08-21T16:36:45;3.55;;;3.25;;
49340;SDS011;35209;51.050;13.678;2023-08-21T16:41:47;5.95;;;3.33;;
49340;SDS011;35209;51.050;13.678;2023-08-21T16:46:49;3.05;;;2.85;;
49340;SDS011;35209;51.050;13.678;2023-08-21T16:51:51;3.60;;;2.58;;
49340;SDS011;35209;51.050;13.678;2023-08-21T16:56:53;3.38;;;2.97;;
49340;SDS011;35209;51.050;13.678;2023-08-21T17:01:55;2.83;;;2.63;;
49340;SDS011;35209;51.050;13.678;2023-08-21T17:06:57;3.22;;;2.92;;
49340;SDS011;35209;51.050;13.678;2023-08-21T17:11:59;9.18;;;3.35;;
49340;SDS011;35209;51.050;13.678;2023-08-21T17:17:01;3.50;;;3.13;;
49340;SDS011;35209;51.050;13.678;2023-08-21T17:22:05;2.47;;;2.28;;
49340;SDS011;35209;51.050;13.678;2023-08-21T17:27:08;3.25;;;2.90;;
49340;SDS011;35209;51.050;13.678;2023-08-21T17:32:14;2.92;;;2.60;;
49340;SDS011;35209;51.050;13.678;2023-08-21T17:37:22;6.00;;;2.92;;
49340;SDS011;35209;51.050;13.678;2023-08-21T17:42:24;2.92;;;2.72;;
49340;SDS011;35209;51.050;13.678;2023-08-21T17:47:26;3.05;;;2.85;;
49340;SDS011;35209;51.050;13.678;2023-08-21T17:52:28;3.33;;;3.03;;
49340;SDS011;35209;51.050;13.678;2023-08-21T17:57:30;3.50;;;3.20;;
49340;SDS011;35209;51.050;13.678;2023-08-21T18:02:32;2.88;;;2.67;;
49340;SDS011;35209;51.050;13.678;2023-08-21T18:07:34;2.85;;;2.63;;
49340;SDS011;35209;51.050;13.678;2023-08-21T18:12:36;3.25;;;2.90;;
49340;SDS011;35209;51.050;13.678;2023-08-21T18:17:38;3.58;;;2.90;;
49340;SDS011;35209;51.050;13.678;2023-08-21T18:22:41;3.15;;;2.85;;
49340;SDS011;35209;51.050;13.678;2023-08-21T18:27:42;3.97;;;3.58;;
49340;SDS011;35209;51.050;13.678;2023-08-21T18:32:44;3.78;;;3.40;;
49340;SDS011;35209;51.050;13.678;2023-08-21T18:37:46;2.80;;;2.60;;
49340;SDS011;35209;51.050;13.678;2023-08-21T18:42:48;2.75;;;2.55;;
49340;SDS011;35209;51.050;13.678;2023-08-21T18:47:50;3.55;;;3.28;;
49340;SDS011;35209;51.050;13.678;2023-08-21T18:52:59;3.60;;;3.17;;
49340;SDS011;35209;51.050;13.678;2023-08-21T18:58:01;3.63;;;3.22;;
49340;SDS011;35209;51.050;13.678;2023-08-21T19:03:05;3.72;;;3.42;;
49340;SDS011;35209;51.050;13.678;2023-08-21T19:08:07;4.10;;;3.33;;
49340;SDS011;35209;51.050;13.678;2023-08-21T19:13:10;3.85;;;3.55;;
49340;SDS011;35209;51.050;13.678;2023-08-21T19:18:12;3.40;;;3.08;;
49340;SDS011;35209;51.050;13.678;2023-08-21T19:23:13;5.43;;;3.55;;
49340;SDS011;35209;51.050;13.678;2023-08-21T19:28:16;3.55;;;3.25;;
49340;SDS011;35209;51.050;13.678;2023-08-21T19:33:19;3.35;;;3.05;;
49340;SDS011;35209;51.050;13.678;2023-08-21T19:38:25;3.60;;;3.30;;
49340;SDS011;35209;51.050;13.678;2023-08-21T19:43:27;3.67;;;3.38;;
49340;SDS011;35209;51.050;13.678;2023-08-21T19:48:29;4.30;;;3.13;;
49340;SDS011;35209;51.050;13.678;2023-08-21T19:53:31;3.53;;;3.33;;
49340;SDS011;35209;51.050;13.678;2023-08-21T19:58:33;5.03;;;3.63;;
49340;SDS011;35209;51.050;13.678;2023-08-21T20:03:35;4.25;;;3.85;;
49340;SDS011;35209;51.050;13.678;2023-08-21T20:08:37;4.25;;;3.80;;
49340;SDS011;35209;51.050;13.678;2023-08-21T20:13:43;4.32;;;3.92;;
49340;SDS011;35209;51.050;13.678;2023-08-21T20:18:45;4.38;;;3.97;;
49340;SDS011;35209;51.050;13.678;2023-08-21T20:23:46;4.13;;;3.83;;
49340;SDS011;35209;51.050;13.678;2023-08-21T20:28:48;4.45;;;4.15;;
49340;SDS011;35209;51.050;13.678;2023-08-21T20:33:50;5.03;;;3.78;;
49340;SDS011;35209;51.050;13.678;2023-08-21T20:38:52;4.70;;;4.30;;
49340;SDS011;35209;51.050;13.678;2023-08-21T20:43:54;5.90;;;4.30;;
49340;SDS011;35209;51.050;13.678;2023-08-21T20:48:55;4.93;;;4.53;;
49340;SDS011;35209;51.050;13.678;2023-08-21T20:53:57;4.30;;;4.00;;
49340;SDS011;35209;51.050;13.678;2023-08-21T20:58:59;6.68;;;4.70;;
49340;SDS011;35209;51.050;13.678;2023-08-21T21:04:00;4.78;;;4.40;;
49340;SDS011;35209;51.050;13.678;2023-08-21T21:09:02;4.75;;;4.35;;
49340;SDS011;35209;51.050;13.678;2023-08-21T21:14:07;5.63;;;5.23;;
49340;SDS011;35209;51.050;13.678;2023-08-21T21:19:09;5.57;;;5.15;;
49340;SDS011;35209;51.050;13.678;2023-08-21T21:24:11;4.75;;;4.43;;
49340;SDS011;35209;51.050;13.678;2023-08-21T21:29:13;5.90;;;5.50;;
49340;SDS011;35209;51.050;13.678;2023-08-21T21:34:17;5.22;;;4.82;;
49340;SDS011;35209;51.050;13.678;2023-08-21T21:39:18;5.07;;;4.68;;
49340;SDS011;35209;51.050;13.678;2023-08-21T21:44:20;5.32;;;4.93;;
49340;SDS011;35209;51.050;13.678;2023-08-21T21:49:22;5.57;;;5.18;;
49340;SDS011;35209;51.050;13.678;2023-08-21T21:54:24;5.72;;;5.20;;
49340;SDS011;35209;51.050;13.678;2023-08-21T21:59:25;6.07;;;5.68;;
49340;SDS011;35209;51.050;13.678;2023-08-21T22:04:27;5.43;;;4.93;;
49340;SDS011;35209;51.050;13.678;2023-08-21T22:09:29;6.43;;;5.93;;
49340;SDS011;35209;51.050;13.678;2023-08-21T22:14:30;6.18;;;5.68;;
49340;SDS011;35209;51.050;13.678;2023-08-21T22:19:32;6.45;;;5.95;;
49340;SDS011;35209;51.050;13.678;2023-08-21T22:24:34;6.57;;;5.97;;
49340;SDS011;35209;51.050;13.678;2023-08-21T22:29:35;6.40;;;5.90;;
49340;SDS011;35209;51.050;13.678;2023-08-21T22:34:37;6.80;;;6.30;;
49340;SDS011;35209;51.050;13.678;2023-08-21T22:39:40;7.20;;;6.70;;
49340;SDS011;35209;51.050;13.678;2023-08-21T22:44:43;6.63;;;6.07;;
49340;SDS011;35209;51.050;13.678;2023-08-21T22:49:44;6.68;;;6.18;;
49340;SDS011;35209;51.050;13.678;2023-08-21T22:54:46;7.25;;;6.57;;
49340;SDS011;35209;51.050;13.678;2023-08-21T22:59:48;7.13;;;6.43;;
49340;SDS011;35209;51.050;13.678;2023-08-21T23:04:49;8.07;;;7.45;;
49340;SDS011;35209;51.050;13.678;2023-08-21T23:09:51;7.38;;;6.88;;
49340;SDS011;35209;51.050;13.678;2023-08-21T23:14:53;8.10;;;7.50;;
49340;SDS011;35209;51.050;13.678;2023-08-21T23:19:54;6.80;;;6.30;;
49340;SDS011;35209;51.050;13.678;2023-08-21T23:24:56;6.75;;;6.35;;
49340;SDS011;35209;51.050;13.678;2023-08-21T23:29:58;8.00;;;7.50;;
49340;SDS011;35209;51.050;13.678;2023-08-21T23:34:59;7.72;;;7.13;;
49340;SDS011;35209;51.050;13.678;2023-08-21T23:40:01;7.60;;;7.10;;
49340;SDS011;35209;51.050;13.678;2023-08-21T23:45:07;7.90;;;7.40;;
49340;SDS011;35209;51.050;13.678;2023-08-21T23:50:09;9.32;;;8.63;;
49340;SDS011;35209;51.050;13.678;2023-08-21T23:55:12;8.30;;;7.72;;
